Hovedside
METAR-TAF:

METAR-TAF

Lufthavner :

Hemavan flyplass

Hemavan, Sverige

breddegrad: 65-48-22N, lengdegrad: 015-04-58E, høyde over havet: 458 m

Gjeldene værobservasjon

Denne rapporten ble laget for 34 minutter siden, klokken 09:50 UTC
Flau vind
Temperatur -9°C
Luftfuktighet 92%
Trykk 1012 hPa
Sikt 10 km eller mer

METAR: ESUT 190950Z AUTO 00000KT 9999 BKN022/// M09/M10 Q1012

Tid: 11:24 (10:24 UTC)


TAF: fraværende

Værobservasjoner og værvarsel for over 4000 flyplasser (METAR- og TAF-rapporter).

Tilgjengelige stasjoner er representert av de røde og gule prikkene på kartet.

Hold musepekeren over prikken for å se navnet på stasjonen.

Klikk så for å se værobservasjoner og -varsler.

For å forandre kartet kan du klikke på den grønne knappen med svart kryss for å zoome inn, på den grønne knappen med strek for å zoome ut, eller på de grønne pilene for å se tilstøtende kart.


METAR-TAF: